Capitol Logistics 7441

Operating for MZN



KPHX
Phoenix Sky Harbor International Airport
Phoenix, Arizona
KTPA
Tampa International Airport
Tampa, Florida

Activity Log

Date Flight Route Aircraft Duration
08/20/2021 CPX7441 ECLPS1 PHASE ELP FST J2 JCT J86 LEV Y280 CHRGE RAYZZ1 B752 4h 00m

Route Details

Aircraft Information
Group: North America Fleet
Types: B738,B752,B762,B763
Route Data
Distance: 1553nm
Duration: 3h 25m
Recm'd Route: ECLPS1 PHASE EWM IAH J86 LEV Q100 REDFN Q100 REMIS SIMMR BLOND5
Origin Wx: KPHX 160851Z COR 06010KT 10SM CLR 23/M07 A3003 RMK AO2 SLP154 T02281072 58003
Dest. Wx: KTPA 160853Z 00000KT 10SM SCT050 26/21 A2994 RMK AO2 SLP138 T02560211 56006
Notes:

Financial History
Total Freight: 44,913lbs
Average Load: 44,913lbs/flt
Fuel Used: 26,953lbs
Avg. Fuel Used: 26,953lbs/flt
Fuel Expense: $9,164
Avg. Fuel Expense: $9,164
Avg. Fuel Cost: $0.34/lbs
Total Gross Income: $102,851
Pilot Pay: $119
Total Expenses: $13,405
Total Revenue: $79,804
Average Revenue: $102,850.77